createdAt,value
2019-02-17T00:01:20.225Z,89.80
2019-02-17T00:03:52.419Z,89.50
2019-02-17T00:06:26.091Z,89.30
2019-02-17T00:08:58.411Z,88.60
2019-02-17T00:11:30.937Z,87.80
2019-02-17T00:14:03.326Z,87.50
2019-02-17T00:16:35.774Z,87.70
2019-02-17T00:19:07.973Z,87.10
2019-02-17T00:21:40.136Z,87.50
2019-02-17T00:24:12.447Z,88.00
2019-02-17T00:26:44.903Z,88.20
2019-02-17T00:29:17.268Z,87.20
2019-02-17T00:31:49.832Z,86.60
2019-02-17T00:34:22.047Z,87.10
2019-02-17T00:36:54.303Z,86.60
2019-02-17T00:39:26.817Z,86.30
2019-02-17T00:41:59.006Z,86.00
2019-02-17T00:44:31.635Z,86.90
2019-02-17T00:47:04.043Z,86.20
2019-02-17T00:49:36.274Z,85.70
2019-02-17T00:52:08.829Z,85.60
2019-02-17T00:54:41.668Z,84.80
2019-02-17T00:57:14.183Z,84.50
2019-02-17T00:59:46.546Z,83.70
2019-02-17T01:02:18.870Z,83.40
2019-02-17T01:04:51.105Z,83.90
2019-02-17T01:07:23.611Z,83.20
2019-02-17T01:09:56.031Z,82.10
2019-02-17T01:12:28.591Z,81.70
2019-02-17T01:15:00.982Z,82.30
2019-02-17T01:17:34.517Z,82.10
2019-02-17T01:20:09.136Z,82.10
2019-02-17T01:22:41.430Z,80.90
2019-02-17T01:25:13.794Z,79.80
2019-02-17T01:27:46.043Z,80.00
2019-02-17T01:30:18.358Z,79.00
2019-02-17T01:32:50.990Z,77.90
2019-02-17T01:35:23.346Z,76.90
2019-02-17T01:37:55.648Z,77.80
2019-02-17T01:40:27.862Z,77.50
2019-02-17T01:43:00.070Z,77.60
2019-02-17T01:45:32.482Z,77.50
2019-02-17T01:48:05.425Z,77.60
2019-02-17T01:50:37.914Z,77.10
2019-02-17T01:53:10.421Z,76.90
2019-02-17T01:55:42.800Z,76.20
2019-02-17T01:58:15.361Z,75.90
2019-02-17T02:00:47.592Z,75.50
2019-02-17T02:03:20.209Z,75.10
2019-02-17T02:05:52.553Z,77.80
2019-02-17T02:08:25.026Z,77.20
2019-02-17T02:10:57.776Z,74.90
2019-02-17T02:13:42.809Z,73.80
2019-02-17T02:16:14.976Z,73.30
2019-02-17T02:18:47.208Z,73.30
2019-02-17T02:21:19.530Z,70.80
2019-02-17T02:23:52.309Z,71.50
2019-02-17T02:26:24.837Z,72.80
2019-02-17T02:28:57.049Z,71.40
2019-02-17T02:31:29.794Z,71.60
2019-02-17T02:34:03.495Z,71.00
2019-02-17T02:36:35.977Z,70.20
2019-02-17T02:39:09.023Z,68.70
2019-02-17T02:41:44.094Z,67.90
2019-02-17T02:44:16.676Z,66.40
2019-02-17T02:46:48.992Z,66.20
2019-02-17T02:49:21.665Z,67.10
2019-02-17T02:51:53.895Z,66.60
2019-02-17T02:54:26.453Z,65.80
2019-02-17T02:56:58.920Z,67.60
2019-02-17T02:59:31.463Z,68.20
2019-02-17T03:02:04.202Z,68.40
2019-02-17T03:04:37.109Z,70.00
2019-02-17T03:07:09.941Z,70.10
2019-02-17T03:09:42.404Z,70.00
2019-02-17T03:12:14.664Z,67.50
2019-02-17T03:14:47.142Z,67.50
2019-02-17T03:17:20.175Z,67.20
2019-02-17T03:19:52.406Z,66.00
2019-02-17T03:22:24.687Z,63.10
2019-02-17T03:24:56.988Z,61.30
2019-02-17T03:27:29.346Z,61.80
2019-02-17T03:30:04.974Z,62.40
2019-02-17T03:32:35.211Z,64.90
2019-02-17T03:35:08.487Z,60.90
2019-02-17T03:37:42.080Z,61.00
2019-02-17T03:40:14.420Z,60.20
2019-02-17T03:42:46.676Z,61.00
2019-02-17T03:45:19.018Z,61.10
2019-02-17T03:47:51.758Z,63.20
2019-02-17T03:50:24.117Z,63.30
2019-02-17T03:52:56.527Z,62.50
2019-02-17T03:55:28.971Z,61.50
2019-02-17T03:58:01.185Z,62.30
2019-02-17T04:00:33.526Z,63.00
2019-02-17T04:03:05.960Z,62.40
2019-02-17T04:05:38.741Z,60.40
2019-02-17T04:08:11.423Z,62.80
2019-02-17T04:10:44.351Z,63.50
2019-02-17T04:13:16.762Z,63.40
2019-02-17T04:15:49.745Z,62.70
2019-02-17T04:18:22.374Z,61.20
2019-02-17T04:20:54.620Z,59.30
2019-02-17T04:23:31.257Z,59.50
2019-02-17T04:26:00.673Z,60.80
2019-02-17T04:28:33.307Z,59.60
2019-02-17T04:31:07.331Z,60.40
2019-02-17T04:33:39.899Z,60.40
2019-02-17T04:36:12.142Z,60.00
2019-02-17T04:38:44.598Z,57.70
2019-02-17T04:41:17.332Z,58.70
2019-02-17T04:43:49.550Z,57.90
2019-02-17T04:46:22.011Z,55.20
2019-02-17T04:48:54.938Z,54.90
2019-02-17T04:51:27.244Z,56.80
2019-02-17T04:53:59.808Z,55.40
2019-02-17T04:56:32.032Z,55.00
2019-02-17T04:59:04.468Z,54.50
2019-02-17T05:01:37.897Z,56.50
2019-02-17T05:04:10.335Z,57.90
2019-02-17T05:06:43.321Z,57.60
2019-02-17T05:09:16.795Z,58.80
2019-02-17T05:11:49.554Z,61.10
2019-02-17T05:14:22.012Z,61.10
2019-02-17T05:16:54.429Z,61.70
2019-02-17T05:19:26.764Z,59.70
2019-02-17T05:21:59.317Z,59.50
2019-02-17T05:24:31.697Z,60.20
2019-02-17T05:27:03.977Z,63.10
2019-02-17T05:29:36.302Z,65.00
2019-02-17T05:32:08.804Z,66.70
2019-02-17T05:34:41.269Z,67.70
2019-02-17T05:37:13.843Z,68.20
2019-02-17T05:39:46.495Z,68.70
2019-02-17T05:42:19.070Z,69.80
2019-02-17T05:44:51.659Z,71.60
2019-02-17T05:47:24.048Z,72.80
2019-02-17T05:49:56.407Z,70.70
2019-02-17T05:52:28.958Z,71.70
2019-02-17T05:55:01.312Z,73.20
2019-02-17T05:57:33.973Z,78.10
2019-02-17T06:00:10.777Z,79.90
2019-02-17T06:02:42.984Z,82.80
2019-02-17T06:05:16.398Z,84.90
2019-02-17T06:07:48.787Z,86.40
2019-02-17T06:10:21.174Z,89.50
2019-02-17T06:12:53.711Z,90.50
2019-02-17T06:15:26.249Z,90.20
2019-02-17T06:17:58.462Z,90.80
2019-02-17T06:20:30.842Z,91.10
2019-02-17T06:23:03.070Z,91.40
2019-02-17T06:25:36.542Z,90.80
2019-02-17T06:28:09.366Z,90.80
2019-02-17T06:30:41.848Z,91.10
2019-02-17T06:33:14.129Z,90.60
2019-02-17T06:35:46.446Z,90.10
2019-02-17T06:38:19.002Z,89.50
2019-02-17T06:40:53.122Z,89.20
2019-02-17T06:43:25.352Z,89.20
2019-02-17T06:45:58.174Z,88.20
2019-02-17T06:48:30.532Z,82.60
2019-02-17T06:51:02.935Z,82.90
2019-02-17T06:53:36.328Z,81.60
2019-02-17T06:56:13.940Z,82.70
2019-02-17T06:58:46.700Z,81.00
2019-02-17T07:01:24.729Z,79.70
2019-02-17T07:03:52.680Z,81.10
2019-02-17T07:06:26.396Z,77.90
2019-02-17T07:08:58.807Z,74.00
2019-02-17T07:11:31.132Z,72.50
2019-02-17T07:14:03.611Z,74.70
2019-02-17T07:16:36.086Z,72.80
2019-02-17T07:19:08.543Z,72.00
2019-02-17T07:21:41.253Z,70.30
2019-02-17T07:24:13.637Z,71.70
2019-02-17T07:26:46.132Z,73.30
2019-02-17T07:29:19.374Z,72.80
2019-02-17T07:31:51.913Z,73.50
2019-02-17T07:34:24.328Z,74.40
2019-02-17T07:36:56.904Z,72.50
2019-02-17T07:39:29.528Z,67.80
2019-02-17T07:42:01.922Z,66.50
2019-02-17T07:44:34.349Z,68.20
2019-02-17T07:47:06.816Z,67.10
2019-02-17T07:49:39.356Z,69.80
2019-02-17T07:52:11.828Z,68.90
2019-02-17T07:54:44.379Z,68.20
2019-02-17T07:57:16.932Z,68.40
2019-02-17T07:59:49.180Z,68.00
2019-02-17T08:02:21.881Z,70.10
2019-02-17T08:04:54.358Z,69.90
2019-02-17T08:07:27.117Z,70.10
2019-02-17T08:10:00.761Z,69.20
2019-02-17T08:12:33.241Z,70.80
2019-02-17T08:15:07.326Z,68.90
2019-02-17T08:17:40.132Z,69.20
2019-02-17T08:20:13.310Z,69.60
2019-02-17T08:22:45.698Z,70.70
2019-02-17T08:25:21.805Z,70.60
2019-02-17T08:27:51.743Z,71.00
2019-02-17T08:30:24.087Z,71.70
2019-02-17T08:32:56.399Z,70.40
2019-02-17T08:35:29.125Z,70.00
2019-02-17T08:38:03.387Z,71.30
2019-02-17T08:40:35.472Z,73.40
2019-02-17T08:43:07.997Z,79.00
2019-02-17T08:45:40.540Z,77.90
2019-02-17T08:48:12.993Z,95.30
2019-02-17T08:50:45.450Z,98.90
2019-02-17T08:53:17.873Z,99.90
2019-02-17T08:55:50.453Z,99.90
2019-02-17T08:58:23.064Z,99.90
2019-02-17T09:00:56.160Z,99.20
2019-02-17T09:03:28.586Z,98.10
2019-02-17T09:06:01.315Z,98.30
2019-02-17T09:08:34.138Z,96.90
2019-02-17T09:11:06.510Z,97.90
2019-02-17T09:13:38.961Z,98.40
2019-02-17T09:16:11.640Z,98.60
2019-02-17T09:18:44.393Z,99.20
2019-02-17T09:21:16.860Z,99.60
2019-02-17T09:23:49.195Z,99.90
2019-02-17T09:26:21.646Z,99.60
2019-02-17T09:28:54.056Z,99.90
2019-02-17T09:31:26.312Z,99.10
2019-02-17T09:33:58.858Z,99.40
2019-02-17T09:36:31.429Z,98.90
2019-02-17T09:39:05.534Z,98.10
2019-02-17T09:41:38.517Z,98.50
2019-02-17T09:44:11.034Z,99.40
2019-02-17T09:46:43.534Z,99.60
2019-02-17T09:49:15.856Z,99.00
2019-02-17T09:51:48.375Z,98.70
2019-02-17T09:54:20.749Z,98.00
2019-02-17T09:56:53.238Z,98.70
2019-02-17T09:59:25.687Z,98.60
2019-02-17T10:01:58.139Z,97.80
2019-02-17T10:04:30.957Z,97.70
2019-02-17T10:07:04.526Z,97.40
2019-02-17T10:09:36.817Z,97.40
2019-02-17T10:12:09.241Z,97.50
2019-02-17T10:14:41.719Z,97.50
2019-02-17T10:17:14.477Z,97.20
2019-02-17T10:19:47.224Z,98.20
2019-02-17T10:22:19.751Z,97.80
2019-02-17T10:24:51.883Z,97.70
2019-02-17T10:27:24.525Z,97.60
2019-02-17T10:29:56.739Z,97.60
2019-02-17T10:32:37.141Z,97.30
2019-02-17T10:35:03.432Z,98.30
2019-02-17T10:37:35.945Z,97.70
2019-02-17T10:40:10.975Z,98.30
2019-02-17T10:42:44.350Z,98.60
2019-02-17T10:45:17.156Z,99.30
2019-02-17T10:47:49.654Z,98.80
2019-02-17T10:50:22.122Z,98.80
2019-02-17T10:52:55.094Z,98.30
2019-02-17T10:55:27.462Z,97.50
2019-02-17T10:58:00.001Z,97.80
2019-02-17T11:00:32.505Z,98.60
2019-02-17T11:03:07.291Z,98.40
2019-02-17T11:05:39.990Z,98.70
2019-02-17T11:08:12.225Z,98.50
2019-02-17T11:10:44.715Z,98.60
2019-02-17T11:13:16.980Z,99.00
2019-02-17T11:15:50.071Z,99.30
2019-02-17T11:18:22.517Z,98.80
2019-02-17T11:20:54.621Z,99.10
2019-02-17T11:23:26.869Z,99.50
2019-02-17T11:25:58.966Z,99.30
2019-02-17T11:28:31.971Z,99.70
2019-02-17T11:31:04.289Z,99.80
2019-02-17T11:33:36.723Z,99.60
2019-02-17T11:36:09.264Z,99.60
2019-02-17T11:38:41.559Z,99.20
2019-02-17T11:41:13.894Z,99.30
2019-02-17T11:43:46.744Z,99.20
2019-02-17T11:46:19.224Z,99.00
2019-02-17T11:48:51.924Z,99.30
2019-02-17T11:51:24.164Z,99.10
2019-02-17T11:53:56.416Z,99.30
2019-02-17T11:56:29.640Z,99.50
2019-02-17T11:59:02.214Z,99.60
2019-02-17T12:01:35.076Z,99.80
2019-02-17T12:04:07.463Z,99.90
2019-02-17T12:06:39.841Z,99.80
2019-02-17T12:09:13.401Z,99.80
2019-02-17T12:11:45.961Z,98.90
2019-02-17T12:14:18.809Z,99.50
2019-02-17T12:16:51.165Z,99.40
2019-02-17T12:19:24.263Z,99.50
2019-02-17T12:21:58.088Z,98.70
2019-02-17T12:24:31.695Z,99.50
2019-02-17T12:27:05.214Z,99.20
2019-02-17T12:29:38.758Z,99.00
2019-02-17T12:32:10.991Z,98.80
2019-02-17T12:34:43.299Z,99.90
2019-02-17T12:37:15.622Z,99.10
2019-02-17T12:39:48.485Z,99.40
2019-02-17T12:42:20.821Z,99.00
2019-02-17T12:44:53.161Z,99.30
2019-02-17T12:47:25.669Z,98.00
2019-02-17T12:49:58.211Z,96.90
2019-02-17T12:52:30.809Z,96.50
2019-02-17T12:55:03.166Z,96.90
2019-02-17T12:57:48.771Z,96.60
2019-02-17T13:00:21.159Z,96.60
2019-02-17T13:02:53.464Z,97.10
2019-02-17T13:05:37.957Z,96.90
2019-02-17T13:08:10.471Z,97.50
2019-02-17T13:10:43.371Z,98.40
2019-02-17T13:13:16.082Z,97.80
2019-02-17T13:15:48.936Z,98.20
2019-02-17T13:18:21.314Z,98.10
2019-02-17T13:20:53.687Z,98.40
2019-02-17T13:23:26.028Z,98.50
2019-02-17T13:25:58.830Z,97.80
2019-02-17T13:28:31.170Z,97.40
2019-02-17T13:31:04.755Z,97.80
2019-02-17T13:33:39.396Z,97.20
2019-02-17T13:36:23.989Z,97.30
2019-02-17T13:38:56.515Z,97.10
2019-02-17T13:41:29.391Z,97.00
2019-02-17T13:44:01.943Z,97.80
2019-02-17T13:46:34.627Z,98.30
2019-02-17T13:49:07.185Z,98.60
2019-02-17T13:51:39.829Z,99.10
2019-02-17T13:54:12.339Z,98.80
2019-02-17T13:56:45.185Z,98.50
2019-02-17T13:59:17.556Z,98.40
2019-02-17T14:01:50.944Z,98.70
2019-02-17T14:04:23.629Z,98.70
2019-02-17T14:06:56.096Z,98.60
2019-02-17T14:09:29.430Z,98.00
2019-02-17T14:12:02.154Z,98.20
2019-02-17T14:14:34.792Z,98.70
2019-02-17T14:17:07.076Z,98.20
2019-02-17T14:19:39.575Z,98.70
2019-02-17T14:22:12.128Z,98.80
2019-02-17T14:24:45.339Z,98.50
2019-02-17T14:27:17.904Z,98.50
2019-02-17T14:29:50.539Z,99.00
2019-02-17T14:32:23.684Z,99.10
2019-02-17T14:34:56.008Z,99.00
2019-02-17T14:37:28.249Z,98.90
2019-02-17T14:40:01.197Z,99.00
2019-02-17T14:42:34.838Z,99.20
2019-02-17T14:45:10.748Z,99.70
2019-02-17T14:47:43.358Z,99.20
2019-02-17T14:50:16.026Z,99.20
2019-02-17T14:52:48.500Z,99.90
2019-02-17T14:55:20.999Z,99.90
2019-02-17T14:57:53.753Z,99.90
2019-02-17T15:00:26.233Z,99.90
2019-02-17T15:02:58.657Z,99.90
2019-02-17T15:05:31.567Z,99.90
2019-02-17T15:08:04.444Z,99.90
2019-02-17T15:10:37.370Z,99.90
2019-02-17T15:13:10.164Z,99.80
2019-02-17T15:15:42.317Z,99.70
2019-02-17T15:18:14.699Z,99.70
2019-02-17T15:20:48.092Z,99.70
2019-02-17T15:23:20.590Z,99.70
2019-02-17T15:25:53.826Z,99.50
2019-02-17T15:28:26.147Z,99.70
2019-02-17T15:30:58.717Z,99.90
2019-02-17T15:33:30.927Z,99.90
2019-02-17T15:36:03.514Z,99.90
2019-02-17T15:38:35.807Z,99.90
2019-02-17T15:41:08.219Z,99.90
2019-02-17T15:43:40.833Z,99.90
2019-02-17T15:46:13.620Z,99.90
2019-02-17T15:48:46.019Z,99.90
2019-02-17T15:51:18.477Z,99.90
2019-02-17T15:53:50.708Z,99.90
2019-02-17T15:56:23.394Z,99.90
2019-02-17T15:58:57.220Z,99.90
2019-02-17T16:01:29.974Z,99.90
2019-02-17T16:04:02.228Z,99.90
2019-02-17T16:06:34.745Z,99.90
2019-02-17T16:09:07.895Z,99.90
2019-02-17T16:11:40.338Z,99.90
2019-02-17T16:14:13.100Z,99.90
2019-02-17T16:16:45.530Z,99.90
2019-02-17T16:19:18.117Z,99.90
2019-02-17T16:21:50.771Z,99.90
2019-02-17T16:24:23.019Z,99.90
2019-02-17T16:26:55.285Z,99.90
2019-02-17T16:29:27.921Z,99.90
2019-02-17T16:32:00.577Z,99.90
2019-02-17T16:34:38.423Z,99.90
2019-02-17T16:37:06.514Z,99.90
2019-02-17T16:39:39.026Z,99.90
2019-02-17T16:42:12.076Z,99.90
2019-02-17T16:44:44.387Z,99.90
2019-02-17T16:47:16.883Z,99.90
2019-02-17T16:49:49.383Z,99.90
2019-02-17T16:52:21.861Z,99.90
2019-02-17T16:54:54.317Z,99.90
2019-02-17T16:57:26.961Z,99.90
2019-02-17T16:59:59.901Z,99.90
2019-02-17T17:02:32.325Z,99.90
2019-02-17T17:05:05.524Z,99.90
2019-02-17T17:07:38.151Z,99.90
2019-02-17T17:10:11.011Z,99.90
2019-02-17T17:12:43.532Z,99.80
2019-02-17T17:15:17.381Z,99.90
2019-02-17T17:17:49.808Z,99.90
2019-02-17T17:20:23.460Z,99.90
2019-02-17T17:22:55.640Z,99.90
2019-02-17T17:25:28.219Z,99.90
2019-02-17T17:28:00.813Z,99.90
2019-02-17T17:30:33.236Z,99.90
2019-02-17T17:33:06.167Z,99.90
2019-02-17T17:35:38.943Z,99.90
2019-02-17T17:38:11.372Z,99.90
2019-02-17T17:40:43.617Z,99.90
2019-02-17T17:43:15.931Z,99.90
2019-02-17T17:45:49.263Z,99.90
2019-02-17T17:48:21.693Z,99.90
2019-02-17T17:50:54.017Z,99.90
2019-02-17T17:53:26.866Z,99.90
2019-02-17T17:55:59.194Z,99.90
2019-02-17T17:58:31.685Z,99.90
2019-02-17T18:01:04.070Z,99.90
2019-02-17T18:03:36.780Z,99.90
2019-02-17T18:06:10.126Z,99.90
2019-02-17T18:08:42.521Z,99.90
2019-02-17T18:11:15.010Z,99.90
2019-02-17T18:13:47.264Z,99.90
2019-02-17T18:16:19.894Z,99.90
2019-02-17T18:18:52.204Z,99.90
2019-02-17T18:21:24.571Z,99.90
2019-02-17T18:23:56.798Z,99.90
2019-02-17T18:26:29.343Z,99.90
2019-02-17T18:29:01.691Z,99.90
2019-02-17T18:31:34.532Z,99.90
2019-02-17T18:34:08.042Z,99.90
2019-02-17T18:36:43.846Z,99.90
2019-02-17T18:39:16.729Z,99.90
2019-02-17T18:41:49.175Z,99.90
2019-02-17T18:44:21.436Z,99.90
2019-02-17T18:46:57.502Z,99.90
2019-02-17T18:49:30.867Z,99.90
2019-02-17T18:52:03.749Z,99.90
2019-02-17T18:54:37.599Z,99.90
2019-02-17T18:57:14.807Z,99.90
2019-02-17T18:59:50.118Z,99.90
2019-02-17T19:02:22.481Z,99.90
2019-02-17T19:04:54.806Z,99.90
2019-02-17T19:07:27.669Z,99.90
2019-02-17T19:09:59.776Z,99.90
2019-02-17T19:12:32.453Z,99.90
2019-02-17T19:15:04.893Z,99.90
2019-02-17T19:17:37.140Z,99.90
2019-02-17T19:20:11.893Z,99.90
2019-02-17T19:22:44.493Z,99.90
2019-02-17T19:25:16.860Z,99.90
2019-02-17T19:27:49.544Z,99.90
2019-02-17T19:30:26.366Z,99.90
2019-02-17T19:32:59.438Z,99.90
2019-02-17T19:35:40.992Z,99.90
2019-02-17T19:38:06.481Z,99.90
2019-02-17T19:40:40.668Z,99.90
2019-02-17T19:43:17.133Z,99.90
2019-02-17T19:45:54.476Z,99.90
2019-02-17T19:48:25.919Z,99.90
2019-02-17T19:50:58.800Z,99.90
2019-02-17T19:53:33.324Z,99.90
2019-02-17T19:56:07.674Z,99.90
2019-02-17T19:58:40.002Z,99.90
2019-02-17T20:01:12.770Z,99.90
2019-02-17T20:03:46.841Z,99.90
2019-02-17T20:06:20.611Z,99.90
2019-02-17T20:08:52.752Z,99.90
2019-02-17T20:11:25.308Z,99.90
2019-02-17T20:13:57.872Z,99.90
2019-02-17T20:16:30.451Z,99.90
2019-02-17T20:19:03.006Z,99.90
2019-02-17T20:21:35.497Z,99.90
2019-02-17T20:24:08.279Z,99.90
2019-02-17T20:26:40.613Z,99.90
2019-02-17T20:29:13.218Z,99.90
2019-02-17T20:31:45.448Z,99.90
2019-02-17T20:34:18.151Z,99.90
2019-02-17T20:36:50.571Z,99.90
2019-02-17T20:39:22.972Z,99.90
2019-02-17T20:41:55.185Z,99.90
2019-02-17T20:44:28.489Z,99.90
2019-02-17T20:47:03.706Z,99.90
2019-02-17T20:49:36.278Z,99.90
2019-02-17T20:52:10.547Z,99.90
2019-02-17T20:54:42.620Z,99.90
2019-02-17T20:57:14.896Z,99.90
2019-02-17T20:59:47.125Z,99.90
2019-02-17T21:02:19.491Z,99.90
2019-02-17T21:04:51.918Z,99.90
2019-02-17T21:07:24.239Z,99.90
2019-02-17T21:09:56.392Z,99.90
2019-02-17T21:12:28.963Z,99.90
2019-02-17T21:15:01.215Z,99.90
2019-02-17T21:17:33.907Z,99.90
2019-02-17T21:20:06.638Z,99.90
2019-02-17T21:22:39.043Z,99.90
2019-02-17T21:25:13.141Z,99.90
2019-02-17T21:27:46.835Z,99.90
2019-02-17T21:30:20.306Z,99.90
2019-02-17T21:32:52.557Z,99.90
2019-02-17T21:35:24.834Z,99.90
2019-02-17T21:37:57.047Z,99.90
2019-02-17T21:40:29.530Z,99.90
2019-02-17T21:43:01.681Z,99.90
2019-02-17T21:45:34.275Z,99.90
2019-02-17T21:48:07.023Z,99.90
2019-02-17T21:50:39.398Z,99.90
2019-02-17T21:53:20.526Z,99.90
2019-02-17T21:55:45.624Z,99.90
2019-02-17T21:58:17.895Z,99.90
2019-02-17T22:00:50.576Z,99.90
2019-02-17T22:03:23.500Z,99.90
2019-02-17T22:05:55.836Z,99.90
2019-02-17T22:08:28.673Z,99.90
2019-02-17T22:11:01.447Z,99.90
2019-02-17T22:13:33.873Z,99.90
2019-02-17T22:16:06.417Z,99.90
2019-02-17T22:18:38.838Z,99.90
2019-02-17T22:21:11.094Z,99.90
2019-02-17T22:23:43.605Z,99.90
2019-02-17T22:26:15.936Z,99.90
2019-02-17T22:28:48.191Z,99.90
2019-02-17T22:31:20.736Z,99.90
2019-02-17T22:33:52.983Z,99.90
2019-02-17T22:36:25.926Z,99.90
2019-02-17T22:38:58.292Z,99.90
2019-02-17T22:41:30.865Z,99.90
2019-02-17T22:44:03.063Z,99.90
2019-02-17T22:46:35.607Z,99.90
2019-02-17T22:49:08.472Z,99.90
2019-02-17T22:51:40.799Z,99.90
2019-02-17T22:54:13.098Z,99.90
2019-02-17T22:56:45.818Z,99.90
2019-02-17T22:59:19.311Z,99.90
2019-02-17T23:01:52.479Z,99.90
2019-02-17T23:04:26.115Z,99.90
2019-02-17T23:06:58.647Z,99.90
2019-02-17T23:09:31.192Z,99.90
2019-02-17T23:12:03.636Z,99.90
2019-02-17T23:14:36.459Z,99.90
2019-02-17T23:17:09.124Z,99.90
2019-02-17T23:19:41.355Z,99.90
2019-02-17T23:22:14.227Z,99.90
2019-02-17T23:24:46.851Z,99.90
2019-02-17T23:27:19.209Z,99.90
2019-02-17T23:29:51.692Z,99.90
2019-02-17T23:32:24.138Z,99.90
2019-02-17T23:34:56.713Z,99.90
2019-02-17T23:37:29.484Z,99.90
2019-02-17T23:40:01.972Z,99.90
2019-02-17T23:42:34.594Z,99.90
2019-02-17T23:45:08.749Z,99.90
2019-02-17T23:47:41.232Z,99.90
2019-02-17T23:50:15.583Z,99.90
2019-02-17T23:52:48.287Z,99.90
2019-02-17T23:55:20.584Z,99.90
2019-02-17T23:57:53.182Z,99.90
